Time;durP1;ratioP1;P1;durP2;ratioP2;P2;SDS_P1;SDS_P2;PMS_P1;PMS_P2;Temp;Humidity;BMP_temperature;BMP_pressure;BME280_temperature;BME280_humidity;BME280_pressure;Samples;Min_cycle;Max_cycle;Signal;HPM_P1;HPM_P2
2023/12/10 00:00:55;;;;;;;16.08;3.13;;;;;;;;;;5103259;28;20238;-69
2023/12/10 00:03:23;;;;;;;16.13;2.83;;;;;;;;;;5101730;28;20195;-69
2023/12/10 00:05:49;;;;;;;12.63;2.40;;;;;;;;;;5102725;28;20216;-69
2023/12/10 00:08:15;;;;;;;12.38;2.90;;;;;;;;;;5105155;28;20203;-69
2023/12/10 00:10:42;;;;;;;11.63;2.58;;;;;;;;;;5105056;27;20552;-69
2023/12/10 00:13:09;;;;;;;13.38;2.65;;;;;;;;;;5093266;28;20215;-69
2023/12/10 00:15:35;;;;;;;19.13;3.30;;;;;;;;;;5101463;28;20223;-69
2023/12/10 00:18:02;;;;;;;12.43;2.25;;;;;;;;;;5103851;28;20640;-68
2023/12/10 00:20:29;;;;;;;14.13;2.97;;;;;;;;;;5105225;28;20612;-69
2023/12/10 00:22:56;;;;;;;14.23;2.97;;;;;;;;;;5102969;28;20195;-68
2023/12/10 00:25:22;;;;;;;14.23;3.03;;;;;;;;;;5101334;28;20223;-69
2023/12/10 00:27:49;;;;;;;10.05;2.63;;;;;;;;;;5101854;28;20615;-68
2023/12/10 00:30:16;;;;;;;10.73;2.45;;;;;;;;;;5104651;28;20202;-69
2023/12/10 00:32:42;;;;;;;11.55;2.53;;;;;;;;;;5096585;28;20216;-69
2023/12/10 00:35:09;;;;;;;14.55;3.25;;;;;;;;;;5104474;28;20215;-69
2023/12/10 00:37:36;;;;;;;13.45;3.38;;;;;;;;;;5104768;28;20191;-69
2023/12/10 00:40:03;;;;;;;8.20;2.20;;;;;;;;;;5101782;28;20203;-69
2023/12/10 00:42:30;;;;;;;20.48;3.65;;;;;;;;;;5100638;28;20191;-69
2023/12/10 00:44:56;;;;;;;13.48;2.92;;;;;;;;;;5102202;28;20227;-69
2023/12/10 00:47:22;;;;;;;13.82;2.85;;;;;;;;;;5104413;28;20190;-69
2023/12/10 00:49:48;;;;;;;17.88;3.47;;;;;;;;;;5103887;28;20203;-69
2023/12/10 00:52:14;;;;;;;15.50;2.63;;;;;;;;;;5100768;28;20211;-69
2023/12/10 00:54:42;;;;;;;17.33;2.92;;;;;;;;;;5100625;28;20224;-69
2023/12/10 00:57:11;;;;;;;18.40;2.97;;;;;;;;;;5103944;28;20195;-69
2023/12/10 00:59:37;;;;;;;16.63;3.17;;;;;;;;;;5104167;28;20738;-69
2023/12/10 01:02:03;;;;;;;23.73;3.47;;;;;;;;;;5101696;28;20216;-69
2023/12/10 01:04:29;;;;;;;18.55;3.50;;;;;;;;;;5100742;28;20220;-68
2023/12/10 01:06:56;;;;;;;12.77;3.03;;;;;;;;;;5101399;28;20204;-69
2023/12/10 01:09:22;;;;;;;19.90;3.60;;;;;;;;;;5107549;28;20196;-69
2023/12/10 01:11:49;;;;;;;24.73;3.20;;;;;;;;;;5100197;28;20664;-69
2023/12/10 01:14:16;;;;;;;18.20;3.28;;;;;;;;;;5103962;28;20609;-69
2023/12/10 01:16:43;;;;;;;17.35;2.85;;;;;;;;;;5104055;28;20691;-69
2023/12/10 01:19:09;;;;;;;19.88;3.30;;;;;;;;;;5100509;28;20677;-69
2023/12/10 01:21:36;;;;;;;21.10;4.13;;;;;;;;;;5100030;28;20196;-69
2023/12/10 01:24:02;;;;;;;20.25;3.88;;;;;;;;;;5101735;28;20200;-69
2023/12/10 01:26:29;;;;;;;22.15;4.30;;;;;;;;;;5103935;28;20305;-69
2023/12/10 01:28:56;;;;;;;21.30;3.85;;;;;;;;;;5102943;28;20206;-69
2023/12/10 01:31:22;;;;;;;15.85;4.28;;;;;;;;;;5100128;28;20660;-71
2023/12/10 01:33:49;;;;;;;19.13;3.83;;;;;;;;;;5100299;28;20722;-69
2023/12/10 01:36:22;;;;;;;26.38;4.93;;;;;;;;;;5091798;28;20575;-69
2023/12/10 01:38:48;;;;;;;19.70;4.25;;;;;;;;;;5100035;28;20672;-69
2023/12/10 01:41:15;;;;;;;23.67;5.20;;;;;;;;;;5103247;28;20712;-69
2023/12/10 01:43:43;;;;;;;17.63;3.55;;;;;;;;;;5103803;28;20199;-69
2023/12/10 01:46:10;;;;;;;27.65;4.78;;;;;;;;;;5101209;28;20226;-69
2023/12/10 01:48:38;;;;;;;24.50;3.78;;;;;;;;;;5100384;28;20215;-69
2023/12/10 01:51:05;;;;;;;26.73;4.88;;;;;;;;;;5101669;28;20216;-69
2023/12/10 01:53:31;;;;;;;23.05;4.82;;;;;;;;;;5103635;28;20661;-69
2023/12/10 01:55:58;;;;;;;23.33;3.65;;;;;;;;;;5102819;28;20215;-69
2023/12/10 01:58:24;;;;;;;24.65;4.15;;;;;;;;;;5100172;28;20195;-69
2023/12/10 02:00:50;;;;;;;22.23;3.95;;;;;;;;;;5100129;28;20292;-69
2023/12/10 02:03:18;;;;;;;20.23;3.80;;;;;;;;;;5103231;28;20282;-69
2023/12/10 02:05:44;;;;;;;28.27;4.72;;;;;;;;;;5103474;28;20223;-69
2023/12/10 02:08:11;;;;;;;22.90;4.18;;;;;;;;;;5101162;28;20252;-69
2023/12/10 02:10:37;;;;;;;22.38;4.00;;;;;;;;;;5100351;28;20226;-69
2023/12/10 02:13:04;;;;;;;23.08;4.63;;;;;;;;;;5101074;28;20220;-69
2023/12/10 02:15:31;;;;;;;22.65;5.20;;;;;;;;;;5103468;28;20223;-69
2023/12/10 02:17:57;;;;;;;28.35;4.45;;;;;;;;;;5102886;28;20203;-69
2023/12/10 02:20:25;;;;;;;24.27;4.20;;;;;;;;;;5103155;28;20198;-69
2023/12/10 02:22:53;;;;;;;24.92;4.40;;;;;;;;;;5103715;28;20257;-69
2023/12/10 02:25:22;;;;;;;23.60;4.25;;;;;;;;;;5095249;28;20220;-69
2023/12/10 02:27:50;;;;;;;28.75;5.40;;;;;;;;;;5103597;28;20261;-69
2023/12/10 02:30:17;;;;;;;24.40;4.35;;;;;;;;;;5106342;28;20233;-69
2023/12/10 02:32:44;;;;;;;20.25;4.35;;;;;;;;;;5106979;28;20219;-69
2023/12/10 02:35:10;;;;;;;22.20;4.03;;;;;;;;;;5104692;28;20691;-69
2023/12/10 02:37:37;;;;;;;21.67;4.47;;;;;;;;;;5103308;28;20612;-69
2023/12/10 02:40:03;;;;;;;22.15;4.32;;;;;;;;;;5104472;28;20249;-69
2023/12/10 02:42:30;;;;;;;23.20;4.43;;;;;;;;;;5106759;28;20287;-69
2023/12/10 02:44:58;;;;;;;23.25;4.28;;;;;;;;;;5106444;28;20219;-69
2023/12/10 02:47:24;;;;;;;25.90;4.80;;;;;;;;;;5103038;28;20320;-69
2023/12/10 02:49:50;;;;;;;21.63;4.90;;;;;;;;;;5103209;28;20204;-69
2023/12/10 02:52:16;;;;;;;27.92;4.20;;;;;;;;;;5105511;28;20207;-69
2023/12/10 02:54:43;;;;;;;28.08;4.95;;;;;;;;;;5106480;28;20276;-69
2023/12/10 02:57:09;;;;;;;25.17;4.85;;;;;;;;;;5104564;28;20199;-69
2023/12/10 02:59:35;;;;;;;24.50;5.20;;;;;;;;;;5102748;28;20204;-69
2023/12/10 03:02:03;;;;;;;22.50;4.57;;;;;;;;;;5103058;28;20200;-69
2023/12/10 03:04:29;;;;;;;21.80;4.57;;;;;;;;;;5106448;28;20274;-69
2023/12/10 03:06:55;;;;;;;33.63;4.85;;;;;;;;;;5106332;28;20203;-69
2023/12/10 03:09:21;;;;;;;20.90;3.60;;;;;;;;;;5102897;28;20199;-69
2023/12/10 03:11:48;;;;;;;18.75;3.08;;;;;;;;;;5102586;28;20208;-69
2023/12/10 03:14:14;;;;;;;13.88;2.63;;;;;;;;;;5104262;28;20302;-69
2023/12/10 03:16:40;;;;;;;14.10;2.97;;;;;;;;;;5104560;28;20268;-69
2023/12/10 03:19:09;;;;;;;15.68;2.72;;;;;;;;;;5104826;28;20195;-69
2023/12/10 03:21:35;;;;;;;12.45;2.45;;;;;;;;;;5100637;28;20200;-69
2023/12/10 03:24:01;;;;;;;9.10;1.77;;;;;;;;;;5100599;28;20656;-69
2023/12/10 03:26:27;;;;;;;10.45;2.00;;;;;;;;;;5104295;28;20280;-69
2023/12/10 03:28:54;;;;;;;9.18;1.88;;;;;;;;;;5104221;28;20203;-69
2023/12/10 03:31:20;;;;;;;10.57;2.00;;;;;;;;;;5100115;28;20210;-68
2023/12/10 03:33:46;;;;;;;9.57;2.42;;;;;;;;;;5100534;28;20216;-69
2023/12/10 03:36:15;;;;;;;12.20;2.50;;;;;;;;;;5103260;28;20295;-69
2023/12/10 03:38:41;;;;;;;12.38;2.22;;;;;;;;;;5105506;28;20667;-69
2023/12/10 03:41:07;;;;;;;18.20;2.58;;;;;;;;;;5104550;28;20202;-69
2023/12/10 03:43:34;;;;;;;10.50;2.25;;;;;;;;;;5101907;28;20661;-69
2023/12/10 03:46:00;;;;;;;10.55;2.28;;;;;;;;;;5101814;28;20569;-69
2023/12/10 03:48:26;;;;;;;10.18;2.70;;;;;;;;;;5101525;28;20733;-69
2023/12/10 03:50:52;;;;;;;10.32;1.92;;;;;;;;;;5101579;28;20733;-69
2023/12/10 03:53:20;;;;;;;8.98;2.10;;;;;;;;;;5101719;28;20260;-69
2023/12/10 03:55:46;;;;;;;12.13;2.28;;;;;;;;;;5101655;28;20283;-69
2023/12/10 03:58:12;;;;;;;12.50;2.63;;;;;;;;;;5102868;28;20211;-69
2023/12/10 04:00:39;;;;;;;9.32;2.33;;;;;;;;;;5105322;28;20199;-69
2023/12/10 04:03:05;;;;;;;18.70;3.40;;;;;;;;;;5105013;28;20203;-69
2023/12/10 04:05:31;;;;;;;13.15;3.15;;;;;;;;;;5105342;28;20226;-69
2023/12/10 04:07:57;;;;;;;13.95;2.80;;;;;;;;;;5105029;28;20198;-69
2023/12/10 04:10:25;;;;;;;13.60;2.70;;;;;;;;;;5102234;28;20199;-69
2023/12/10 04:12:52;;;;;;;16.13;3.42;;;;;;;;;;5101315;28;20203;-69
2023/12/10 04:15:18;;;;;;;11.65;2.72;;;;;;;;;;5103077;28;20215;-69
2023/12/10 04:17:44;;;;;;;15.00;2.95;;;;;;;;;;5104863;28;20663;-69
2023/12/10 04:20:11;;;;;;;21.50;3.42;;;;;;;;;;5103892;28;20199;-69
2023/12/10 04:22:37;;;;;;;15.57;2.88;;;;;;;;;;5101164;28;20573;-69
2023/12/10 04:25:03;;;;;;;14.38;2.90;;;;;;;;;;5101037;28;20776;-69
2023/12/10 04:27:31;;;;;;;20.23;3.15;;;;;;;;;;5101139;28;20257;-69
2023/12/10 04:29:57;;;;;;;16.58;2.92;;;;;;;;;;5101025;28;20208;-69
2023/12/10 04:32:23;;;;;;;19.45;3.08;;;;;;;;;;5103347;28;20233;-69
2023/12/10 04:34:50;;;;;;;13.27;2.92;;;;;;;;;;5104397;28;20222;-69
2023/12/10 04:37:17;;;;;;;18.20;2.65;;;;;;;;;;5103262;28;20244;-69
2023/12/10 04:39:44;;;;;;;14.45;2.88;;;;;;;;;;5100928;28;20207;-69
2023/12/10 04:42:11;;;;;;;21.30;3.35;;;;;;;;;;5100224;28;20195;-69
2023/12/10 04:44:38;;;;;;;17.55;2.90;;;;;;;;;;5100473;28;20192;-69
2023/12/10 04:47:05;;;;;;;11.40;3.15;;;;;;;;;;5092817;28;20227;-69
2023/12/10 04:49:31;;;;;;;18.30;3.33;;;;;;;;;;5092676;28;20199;-69
2023/12/10 04:51:57;;;;;;;19.13;2.97;;;;;;;;;;5092519;28;20203;-69
2023/12/10 04:54:24;;;;;;;18.45;2.92;;;;;;;;;;5092169;28;20296;-69
2023/12/10 04:56:50;;;;;;;17.55;2.78;;;;;;;;;;5092688;28;20208;-69
2023/12/10 04:59:16;;;;;;;16.95;3.00;;;;;;;;;;5092642;28;20584;-69
2023/12/10 05:01:44;;;;;;;15.93;2.95;;;;;;;;;;5092467;28;20609;-69
2023/12/10 05:04:10;;;;;;;13.30;2.53;;;;;;;;;;5092956;28;20200;-69
2023/12/10 05:06:36;;;;;;;15.73;2.55;;;;;;;;;;5092712;28;20273;-69
2023/12/10 05:09:03;;;;;;;17.05;3.30;;;;;;;;;;5093787;28;20199;-69
2023/12/10 05:11:29;;;;;;;14.95;2.53;;;;;;;;;;5103567;28;20234;-69
2023/12/10 05:13:56;;;;;;;9.95;2.65;;;;;;;;;;5104489;28;20625;-69
2023/12/10 05:16:22;;;;;;;13.43;2.85;;;;;;;;;;5104368;28;20227;-69
2023/12/10 05:18:50;;;;;;;14.40;3.17;;;;;;;;;;5104152;28;20208;-69
2023/12/10 05:21:16;;;;;;;17.17;3.15;;;;;;;;;;5104525;28;20348;-69
2023/12/10 05:23:42;;;;;;;17.52;3.13;;;;;;;;;;5104037;28;20196;-69
2023/12/10 05:26:08;;;;;;;12.55;3.30;;;;;;;;;;5104105;28;20223;-69
2023/12/10 05:28:35;;;;;;;13.30;3.45;;;;;;;;;;5103775;28;20229;-69
2023/12/10 05:31:01;;;;;;;14.52;2.90;;;;;;;;;;5103561;28;20672;-69
2023/12/10 05:33:27;;;;;;;15.25;2.67;;;;;;;;;;5104279;28;20211;-69
2023/12/10 05:35:55;;;;;;;14.77;2.75;;;;;;;;;;5103837;28;20227;-69
2023/12/10 05:38:21;;;;;;;12.85;2.58;;;;;;;;;;5098356;28;20628;-69
2023/12/10 05:40:47;;;;;;;7.80;2.47;;;;;;;;;;5092559;28;20339;-69
2023/12/10 05:43:14;;;;;;;19.17;3.20;;;;;;;;;;5095063;28;20199;-69
2023/12/10 05:45:40;;;;;;;12.88;2.58;;;;;;;;;;5097091;28;20245;-69
2023/12/10 05:48:06;;;;;;;14.20;2.95;;;;;;;;;;5103808;28;20231;-69
2023/12/10 05:50:33;;;;;;;17.95;3.53;;;;;;;;;;5099250;28;20207;-69
2023/12/10 05:53:03;;;;;;;13.00;3.30;;;;;;;;;;5096067;28;20233;-69
2023/12/10 05:55:29;;;;;;;16.05;3.17;;;;;;;;;;5098818;28;20274;-70
2023/12/10 05:57:56;;;;;;;16.88;3.28;;;;;;;;;;5098429;28;20245;-69
2023/12/10 06:00:22;;;;;;;14.82;2.20;;;;;;;;;;5097563;28;20196;-70
2023/12/10 06:02:49;;;;;;;19.27;3.28;;;;;;;;;;5096682;28;20200;-70
2023/12/10 06:05:15;;;;;;;10.93;2.78;;;;;;;;;;5096826;28;20215;-70
2023/12/10 06:07:42;;;;;;;11.90;2.30;;;;;;;;;;5096685;28;20257;-69
2023/12/10 06:10:10;;;;;;;17.50;3.22;;;;;;;;;;5096708;28;20291;-69
2023/12/10 06:12:36;;;;;;;10.45;3.05;;;;;;;;;;5096344;28;20195;-68
2023/12/10 06:15:02;;;;;;;16.75;3.00;;;;;;;;;;5096970;28;20224;-70
2023/12/10 06:17:29;;;;;;;13.50;2.10;;;;;;;;;;5096550;28;20246;-70
2023/12/10 06:19:55;;;;;;;15.10;2.80;;;;;;;;;;5096082;28;20207;-68
2023/12/10 06:22:21;;;;;;;10.63;2.85;;;;;;;;;;5096256;28;20199;-68
2023/12/10 06:24:47;;;;;;;13.02;2.53;;;;;;;;;;5095633;28;20223;-69
2023/12/10 06:27:15;;;;;;;14.98;2.80;;;;;;;;;;5095389;28;20208;-70
2023/12/10 06:29:41;;;;;;;12.45;2.63;;;;;;;;;;5094279;28;20208;-69
2023/12/10 06:32:08;;;;;;;12.45;2.75;;;;;;;;;;5094419;28;20195;-69
2023/12/10 06:34:34;;;;;;;11.32;3.22;;;;;;;;;;5094321;28;20224;-69
2023/12/10 06:37:00;;;;;;;16.50;2.80;;;;;;;;;;5094260;28;20680;-69
2023/12/10 06:39:27;;;;;;;15.18;2.95;;;;;;;;;;5094785;28;20236;-69
2023/12/10 06:41:53;;;;;;;14.18;2.45;;;;;;;;;;5095246;28;20204;-69
2023/12/10 06:44:22;;;;;;;15.15;2.47;;;;;;;;;;5097236;28;20196;-60
2023/12/10 06:46:48;;;;;;;12.43;2.15;;;;;;;;;;5098805;28;20204;-59
2023/12/10 06:49:14;;;;;;;15.98;2.50;;;;;;;;;;5098724;28;20209;-59
2023/12/10 06:51:41;;;;;;;19.67;3.05;;;;;;;;;;5099276;28;20207;-59
2023/12/10 06:54:07;;;;;;;12.95;2.45;;;;;;;;;;5098199;28;20280;-60
2023/12/10 06:56:39;;;;;;;20.05;3.30;;;;;;;;;;5097593;28;20257;-59
2023/12/10 06:59:05;;;;;;;14.35;2.72;;;;;;;;;;5095312;28;20200;-59
2023/12/10 07:01:33;;;;;;;29.35;8.77;;;;;;;;;;5095240;28;20223;-59
2023/12/10 07:03:59;;;;;;;18.73;6.15;;;;;;;;;;5095452;28;20261;-59
2023/12/10 07:06:25;;;;;;;14.52;3.67;;;;;;;;;;5094494;28;20224;-59
2023/12/10 07:08:51;;;;;;;14.02;2.83;;;;;;;;;;5096115;28;20203;-59
2023/12/10 07:11:18;;;;;;;13.70;3.28;;;;;;;;;;5096130;28;20222;-60
2023/12/10 07:13:44;;;;;;;23.27;11.25;;;;;;;;;;5098537;28;20211;-60
2023/12/10 07:16:11;;;;;;;11.57;4.63;;;;;;;;;;5098764;28;20228;-59
2023/12/10 07:18:38;;;;;;;8.35;2.88;;;;;;;;;;5098811;28;20204;-59
2023/12/10 07:21:05;;;;;;;14.90;3.20;;;;;;;;;;5098634;28;20261;-59
2023/12/10 07:23:31;;;;;;;15.25;2.85;;;;;;;;;;5099111;28;20602;-59
2023/12/10 07:25:57;;;;;;;16.30;3.35;;;;;;;;;;5099594;28;20773;-58
2023/12/10 07:28:23;;;;;;;18.30;3.28;;;;;;;;;;5098906;28;20195;-59
2023/12/10 07:30:50;;;;;;;12.88;3.17;;;;;;;;;;5100002;28;20644;-59
2023/12/10 07:33:16;;;;;;;13.35;2.15;;;;;;;;;;5100437;28;20203;-59
2023/12/10 07:35:43;;;;;;;20.38;3.38;;;;;;;;;;5097773;28;20228;-58
2023/12/10 07:38:10;;;;;;;13.35;2.85;;;;;;;;;;5097156;28;20200;-58
2023/12/10 07:40:36;;;;;;;13.00;3.00;;;;;;;;;;5097082;28;20252;-57
2023/12/10 07:43:02;;;;;;;15.43;2.90;;;;;;;;;;5096897;28;20234;-59
2023/12/10 07:45:28;;;;;;;11.27;2.45;;;;;;;;;;5097724;28;20322;-58
2023/12/10 07:47:56;;;;;;;15.50;2.92;;;;;;;;;;5097538;28;20249;-59
2023/12/10 07:50:22;;;;;;;15.70;2.67;;;;;;;;;;5097453;28;20210;-59
2023/12/10 07:52:50;;;;;;;13.10;2.88;;;;;;;;;;5096969;28;20196;-57
2023/12/10 07:55:16;;;;;;;14.65;2.67;;;;;;;;;;5097378;28;20281;-59
2023/12/10 07:57:42;;;;;;;10.00;2.53;;;;;;;;;;5097671;28;20291;-59
2023/12/10 08:00:10;;;;;;;15.27;3.00;;;;;;;;;;5096905;28;20200;-59
2023/12/10 08:02:36;;;;;;;12.98;2.83;;;;;;;;;;5097123;28;20605;-59
2023/12/10 08:05:03;;;;;;;15.52;3.13;;;;;;;;;;5096153;28;20738;-59
2023/12/10 08:07:29;;;;;;;11.45;2.53;;;;;;;;;;5096932;28;20203;-59
2023/12/10 08:09:56;;;;;;;18.15;3.78;;;;;;;;;;5096423;28;20257;-58
2023/12/10 08:12:23;;;;;;;17.25;2.90;;;;;;;;;;5095772;28;20202;-59
2023/12/10 08:14:49;;;;;;;17.00;3.13;;;;;;;;;;5096363;28;20569;-59
2023/12/10 08:17:16;;;;;;;14.95;3.17;;;;;;;;;;5096257;28;20725;-59
2023/12/10 08:19:42;;;;;;;16.65;2.80;;;;;;;;;;5096257;28;20725;-59
2023/12/10 08:22:08;;;;;;;11.50;2.58;;;;;;;;;;5096100;28;20680;-59
2023/12/10 08:24:35;;;;;;;11.48;2.60;;;;;;;;;;5096161;28;20257;-59
2023/12/10 08:27:03;;;;;;;15.75;2.80;;;;;;;;;;5096283;28;20212;-59
2023/12/10 08:29:29;;;;;;;14.68;2.67;;;;;;;;;;5096961;28;20672;-58
2023/12/10 08:31:55;;;;;;;16.77;3.03;;;;;;;;;;5097408;28;20769;-59
2023/12/10 08:34:21;;;;;;;12.75;2.60;;;;;;;;;;5096048;28;20554;-59
2023/12/10 08:36:47;;;;;;;10.23;2.67;;;;;;;;;;5096017;28;20195;-59
2023/12/10 08:39:14;;;;;;;15.20;3.55;;;;;;;;;;5096110;28;20196;-59
2023/12/10 08:41:40;;;;;;;12.52;2.65;;;;;;;;;;5096246;28;20271;-59
2023/12/10 08:44:08;;;;;;;13.18;2.88;;;;;;;;;;5096824;28;20203;-59
2023/12/10 08:46:34;;;;;;;9.55;3.00;;;;;;;;;;5096447;28;20261;-59
2023/12/10 08:49:00;;;;;;;29.02;7.85;;;;;;;;;;5095735;28;20242;-58
2023/12/10 08:51:26;;;;;;;74.93;16.90;;;;;;;;;;5094732;28;20310;-58
2023/12/10 08:53:53;;;;;;;41.50;10.95;;;;;;;;;;5095073;28;20200;-59
2023/12/10 08:56:19;;;;;;;16.77;5.00;;;;;;;;;;5095442;28;20223;-58
2023/12/10 08:58:45;;;;;;;23.70;6.88;;;;;;;;;;5094909;28;20199;-59
2023/12/10 09:01:13;;;;;;;56.40;14.70;;;;;;;;;;5094538;28;20217;-59
2023/12/10 09:03:42;;;;;;;31.80;10.18;;;;;;;;;;5096230;28;20204;-59
2023/12/10 09:06:08;;;;;;;16.95;5.65;;;;;;;;;;5097545;28;20219;-59
2023/12/10 09:08:35;;;;;;;30.98;12.98;;;;;;;;;;5098763;28;20199;-59
2023/12/10 09:11:03;;;;;;;12.52;5.03;;;;;;;;;;5098876;28;20199;-59
2023/12/10 09:13:30;;;;;;;12.30;3.50;;;;;;;;;;5098209;28;20199;-60
2023/12/10 09:15:56;;;;;;;11.25;3.13;;;;;;;;;;5098224;28;20232;-60
2023/12/10 09:18:24;;;;;;;12.43;3.13;;;;;;;;;;5098749;28;20208;-60
2023/12/10 09:20:50;;;;;;;19.92;3.03;;;;;;;;;;5097233;28;20241;-59
2023/12/10 09:23:16;;;;;;;10.30;2.65;;;;;;;;;;5096398;28;20203;-60
2023/12/10 09:25:42;;;;;;;12.30;2.42;;;;;;;;;;5095562;28;20216;-59
2023/12/10 09:28:09;;;;;;;15.85;2.92;;;;;;;;;;5096769;28;20622;-59
2023/12/10 09:30:35;;;;;;;11.68;2.80;;;;;;;;;;5102242;28;20218;-59
2023/12/10 09:33:01;;;;;;;14.35;3.30;;;;;;;;;;5102675;28;20203;-60
2023/12/10 09:35:29;;;;;;;11.88;2.97;;;;;;;;;;5102391;28;20753;-59
2023/12/10 09:37:55;;;;;;;11.27;2.47;;;;;;;;;;5102604;28;20609;-59
2023/12/10 09:40:21;;;;;;;10.10;2.67;;;;;;;;;;5101810;28;20678;-59
2023/12/10 09:42:48;;;;;;;10.25;2.75;;;;;;;;;;5101830;28;20597;-59
2023/12/10 09:45:14;;;;;;;13.60;2.78;;;;;;;;;;5102849;28;20216;-58
2023/12/10 09:47:41;;;;;;;12.10;2.63;;;;;;;;;;5102269;28;20203;-58
2023/12/10 09:50:07;;;;;;;11.57;2.50;;;;;;;;;;5101742;28;20248;-60
2023/12/10 09:52:35;;;;;;;10.02;2.35;;;;;;;;;;5102078;28;20614;-60
2023/12/10 09:55:00;;;;;;;8.23;2.40;;;;;;;;;;5102823;28;20227;-60
2023/12/10 09:57:29;;;;;;;7.72;2.47;;;;;;;;;;5103105;28;20200;-59
2023/12/10 09:59:55;;;;;;;10.35;2.60;;;;;;;;;;5104071;28;20230;-60
2023/12/10 10:02:22;;;;;;;10.18;2.10;;;;;;;;;;5104305;28;20200;-60
2023/12/10 10:04:49;;;;;;;20.50;4.03;;;;;;;;;;5103223;28;20226;-60
2023/12/10 10:07:15;;;;;;;12.40;2.53;;;;;;;;;;5103492;28;20203;-60
2023/12/10 10:09:43;;;;;;;15.13;3.97;;;;;;;;;;5102387;28;20207;-60
2023/12/10 10:12:12;;;;;;;11.27;2.78;;;;;;;;;;5102904;28;20289;-60
2023/12/10 10:14:38;;;;;;;12.88;2.58;;;;;;;;;;5103303;28;20656;-60
2023/12/10 10:17:04;;;;;;;9.75;1.90;;;;;;;;;;5102928;28;20245;-60
2023/12/10 10:19:31;;;;;;;11.30;2.70;;;;;;;;;;5101885;28;20295;-60
2023/12/10 10:21:57;;;;;;;8.65;2.40;;;;;;;;;;5103004;28;20261;-60
2023/12/10 10:24:23;;;;;;;5.45;1.52;;;;;;;;;;5102334;28;20204;-61
2023/12/10 10:26:53;;;;;;;10.55;2.67;;;;;;;;;;5103295;28;20199;-60
2023/12/10 10:29:21;;;;;;;8.32;2.08;;;;;;;;;;5101494;28;20256;-59
2023/12/10 10:31:47;;;;;;;9.20;1.88;;;;;;;;;;5102042;28;20191;-60
2023/12/10 10:34:14;;;;;;;7.63;1.75;;;;;;;;;;5101911;28;20883;-59
2023/12/10 10:36:40;;;;;;;9.38;1.92;;;;;;;;;;5101648;28;20269;-59
2023/12/10 10:39:07;;;;;;;9.80;2.60;;;;;;;;;;5102622;28;20204;-59
2023/12/10 10:41:34;;;;;;;6.53;2.03;;;;;;;;;;5098435;28;20203;-60
2023/12/10 10:44:01;;;;;;;8.95;2.45;;;;;;;;;;5098684;28;20211;-59
2023/12/10 10:46:27;;;;;;;8.48;1.80;;;;;;;;;;5097795;28;20220;-59
2023/12/10 10:48:55;;;;;;;7.30;1.60;;;;;;;;;;5098387;28;20261;-59
2023/12/10 10:51:23;;;;;;;3.35;1.48;;;;;;;;;;5098434;28;20196;-58
2023/12/10 10:53:49;;;;;;;4.85;1.80;;;;;;;;;;5097752;28;20200;-59
2023/12/10 10:56:16;;;;;;;6.55;1.67;;;;;;;;;;5097428;28;20265;-59
2023/12/10 10:58:43;;;;;;;6.40;1.98;;;;;;;;;;5097794;28;20235;-59
2023/12/10 11:01:31;;;;;;;6.65;1.88;;;;;;;;;;5097654;28;20199;-59
2023/12/10 11:03:58;;;;;;;6.50;1.98;;;;;;;;;;5097790;28;20261;-59
2023/12/10 11:06:25;;;;;;;4.55;1.52;;;;;;;;;;5097668;28;20216;-59
2023/12/10 11:09:00;;;;;;;8.25;2.50;;;;;;;;;;5097118;28;20204;-58
2023/12/10 11:11:27;;;;;;;6.05;1.85;;;;;;;;;;5097952;28;20211;-60
2023/12/10 11:13:54;;;;;;;14.00;2.58;;;;;;;;;;5099534;28;20195;-59
2023/12/10 11:16:21;;;;;;;8.85;1.80;;;;;;;;;;5098982;28;20227;-60
2023/12/10 11:18:51;;;;;;;7.78;2.10;;;;;;;;;;5098491;28;20267;-59
2023/12/10 11:21:18;;;;;;;8.38;2.10;;;;;;;;;;5096658;28;20282;-59
2023/12/10 11:23:44;;;;;;;10.80;2.03;;;;;;;;;;5095878;28;20204;-59
2023/12/10 11:26:10;;;;;;;8.95;2.17;;;;;;;;;;5095902;28;20344;-59
2023/12/10 11:28:37;;;;;;;7.90;1.98;;;;;;;;;;5095511;28;20203;-59
2023/12/10 11:31:03;;;;;;;10.35;2.88;;;;;;;;;;5095477;28;20295;-59
2023/12/10 11:33:31;;;;;;;13.50;2.67;;;;;;;;;;5095593;28;20202;-59
2023/12/10 11:35:57;;;;;;;12.90;2.35;;;;;;;;;;5095740;28;20273;-59
2023/12/10 11:38:24;;;;;;;19.50;3.35;;;;;;;;;;5095693;28;20735;-59
2023/12/10 11:40:51;;;;;;;10.57;2.17;;;;;;;;;;5096028;28;20253;-59
2023/12/10 11:43:19;;;;;;;18.50;3.05;;;;;;;;;;5096223;28;20199;-59
2023/12/10 11:45:46;;;;;;;14.25;2.65;;;;;;;;;;5096103;28;20573;-59
2023/12/10 11:48:12;;;;;;;14.32;2.92;;;;;;;;;;5095781;28;20253;-60
2023/12/10 11:50:40;;;;;;;45.45;11.60;;;;;;;;;;5095473;28;20200;-59
2023/12/10 11:53:07;;;;;;;10.18;2.50;;;;;;;;;;5094905;28;20294;-59
2023/12/10 11:55:33;;;;;;;10.55;2.13;;;;;;;;;;5094961;28;20223;-59
2023/12/10 11:58:00;;;;;;;9.82;2.60;;;;;;;;;;5094973;28;20199;-59
2023/12/10 12:00:26;;;;;;;14.82;2.35;;;;;;;;;;5095931;28;20265;-59
2023/12/10 12:02:52;;;;;;;74.13;20.35;;;;;;;;;;5095717;28;20203;-59
2023/12/10 12:05:19;;;;;;;14.65;4.35;;;;;;;;;;5096079;28;20699;-60
2023/12/10 12:07:48;;;;;;;17.65;3.30;;;;;;;;;;5096043;28;20280;-59
2023/12/10 12:10:15;;;;;;;11.43;2.15;;;;;;;;;;5095155;28;20208;-59
2023/12/10 12:12:42;;;;;;;9.10;2.65;;;;;;;;;;5095283;28;20208;-59
2023/12/10 12:15:10;;;;;;;12.95;2.72;;;;;;;;;;5096915;28;20220;-60
2023/12/10 12:17:36;;;;;;;8.93;2.50;;;;;;;;;;5097174;28;20726;-57
2023/12/10 12:20:16;;;;;;;26.85;5.55;;;;;;;;;;5096562;28;20726;-59
2023/12/10 12:22:42;;;;;;;14.13;2.97;;;;;;;;;;5097832;28;20202;-59
2023/12/10 12:25:10;;;;;;;18.35;4.43;;;;;;;;;;5098617;28;20719;-60
2023/12/10 12:27:36;;;;;;;13.43;5.10;;;;;;;;;;5097679;28;20202;-59
2023/12/10 12:30:03;;;;;;;15.60;6.20;;;;;;;;;;5097832;28;20583;-59
2023/12/10 12:32:29;;;;;;;7.32;2.40;;;;;;;;;;5097344;28;20695;-59
2023/12/10 12:34:55;;;;;;;11.27;2.30;;;;;;;;;;5097066;28;20453;-59
2023/12/10 12:37:21;;;;;;;9.13;2.25;;;;;;;;;;5098072;28;20368;-60
2023/12/10 12:39:48;;;;;;;12.35;2.60;;;;;;;;;;5097037;28;20211;-59
2023/12/10 12:42:15;;;;;;;12.90;2.50;;;;;;;;;;5096985;28;20261;-59
2023/12/10 12:44:41;;;;;;;8.57;2.28;;;;;;;;;;5096389;28;20228;-59
2023/12/10 12:47:08;;;;;;;10.13;2.15;;;;;;;;;;5096166;28;20252;-59
2023/12/10 12:49:35;;;;;;;11.50;2.53;;;;;;;;;;5095527;28;20672;-59
2023/12/10 12:52:02;;;;;;;12.93;2.95;;;;;;;;;;5094864;28;20574;-59
2023/12/10 12:54:29;;;;;;;15.63;2.78;;;;;;;;;;5095377;28;20272;-59
2023/12/10 12:56:55;;;;;;;15.55;2.67;;;;;;;;;;5093564;28;20925;-59
2023/12/10 12:59:23;;;;;;;7.97;2.05;;;;;;;;;;5093957;28;20206;-60
2023/12/10 13:01:49;;;;;;;12.48;2.45;;;;;;;;;;5095850;28;20196;-59
2023/12/10 13:04:15;;;;;;;11.02;2.33;;;;;;;;;;5095286;28;20204;-59
2023/12/10 13:06:42;;;;;;;7.70;2.63;;;;;;;;;;5096382;28;20280;-59
2023/12/10 13:09:09;;;;;;;7.00;2.05;;;;;;;;;;5096457;28;20253;-59
2023/12/10 13:11:36;;;;;;;12.07;2.47;;;;;;;;;;5097558;28;20210;-59
2023/12/10 13:14:02;;;;;;;12.32;2.47;;;;;;;;;;5098087;28;20237;-59
2023/12/10 13:16:30;;;;;;;8.88;2.70;;;;;;;;;;5096327;28;20331;-59
2023/12/10 13:18:57;;;;;;;10.13;2.40;;;;;;;;;;5093802;28;20290;-59
2023/12/10 13:21:23;;;;;;;9.57;2.10;;;;;;;;;;5093991;28;20199;-58
2023/12/10 13:23:49;;;;;;;11.73;2.60;;;;;;;;;;5093930;28;20245;-59
2023/12/10 13:26:15;;;;;;;7.22;2.15;;;;;;;;;;5093072;28;20634;-59
2023/12/10 13:28:41;;;;;;;7.00;1.83;;;;;;;;;;5092949;28;20625;-59
2023/12/10 13:31:08;;;;;;;10.35;2.85;;;;;;;;;;5093474;28;20687;-59
2023/12/10 13:33:35;;;;;;;6.78;2.20;;;;;;;;;;5093417;28;20199;-59
2023/12/10 13:36:02;;;;;;;14.77;2.92;;;;;;;;;;5094492;28;20715;-59
2023/12/10 13:38:28;;;;;;;9.45;1.65;;;;;;;;;;5096367;28;20219;-59
2023/12/10 13:40:56;;;;;;;7.35;1.88;;;;;;;;;;5095248;28;20207;-60
2023/12/10 13:43:22;;;;;;;9.32;2.45;;;;;;;;;;5096037;28;20273;-60
2023/12/10 13:45:48;;;;;;;5.00;1.80;;;;;;;;;;5097001;28;20648;-60
2023/12/10 13:48:14;;;;;;;7.22;3.45;;;;;;;;;;5097074;28;20199;-60
2023/12/10 13:50:42;;;;;;;9.82;4.05;;;;;;;;;;5096925;28;20667;-60
2023/12/10 13:53:08;;;;;;;13.57;4.07;;;;;;;;;;5097411;28;20671;-60
2023/12/10 13:55:35;;;;;;;6.22;2.83;;;;;;;;;;5097111;28;20280;-60
2023/12/10 13:58:02;;;;;;;11.35;4.15;;;;;;;;;;5096729;28;20224;-59
2023/12/10 14:00:28;;;;;;;11.15;2.90;;;;;;;;;;5096566;28;20204;-59
2023/12/10 14:02:54;;;;;;;12.07;4.95;;;;;;;;;;5087453;28;20265;-60
2023/12/10 14:05:20;;;;;;;6.22;3.42;;;;;;;;;;5088455;28;20310;-61
2023/12/10 14:07:48;;;;;;;6.57;2.03;;;;;;;;;;5089004;28;20204;-60
2023/12/10 14:10:14;;;;;;;8.43;2.85;;;;;;;;;;5091995;28;20211;-61
2023/12/10 14:12:41;;;;;;;8.75;2.58;;;;;;;;;;5092241;28;20283;-61
2023/12/10 14:15:08;;;;;;;6.47;1.80;;;;;;;;;;5092505;28;20285;-61
2023/12/10 14:17:36;;;;;;;7.05;2.00;;;;;;;;;;5093881;28;20231;-62
2023/12/10 14:20:02;;;;;;;12.05;2.47;;;;;;;;;;5094401;28;20196;-62
2023/12/10 14:22:28;;;;;;;5.25;1.88;;;;;;;;;;5094811;28;20219;-62
2023/12/10 14:24:56;;;;;;;7.72;2.38;;;;;;;;;;5095071;28;20711;-62
2023/12/10 14:27:22;;;;;;;7.50;2.33;;;;;;;;;;5096994;28;20203;-60